Weippe, ID (83553)

6:46 PM PST on December 02, 2016 (GMT -0800)
APRSWXNET | | Change Station

Elev 3069 ft 46.38 °N, 115.95 °W | Updated 27 minutes ago

Overcast
Overcast
32 °F
Feels Like 32 °F
N
0
Wind Variable Wind from SE
Gusts 0.0 mph

Today
High -- | Low -- °F
--% Chance of Precip.
Yesterday
High -- | Low -- °F
Precip. -- in
Pressure 30.14 in
Visibility 10.0 miles
Clouds Overcast 6000 ft
Windchill 32 °F
Dew Point 29 °F
Humidity 89%
Rainfall in
Snow Depth Not available.
7:08 AM 3:58 PM
Waxing Crescent, 12% visible
METAR KGIC 030235Z AUTO 19014KT 10SM OVC060 01/M06 A3014 RMK AO1
Pressure 30.14 in
Visibility 10.0 miles
Clouds Overcast 6000 ft
Windchill 32 °F
Dew Point 29 °F
Humidity 89%
Rainfall in
Snow Depth Not available.
7:08 AM 3:58 PM
Waxing Crescent, 12% visible
METAR KGIC 030235Z AUTO 19014KT 10SM OVC060 01/M06 A3014 RMK AO1

10-Day Weather Forecast

Almanac

Astronomy

Dec. 02, 2016 Rise Set
Actual Time
Civil Twilight
Nautical Twilight
Astronomical Twilight
Moon
Length of Visible Light
Length of Day
Tomorrow will be .
, % of the Moon is Illuminated

Today's Extremes

State Highs State Lows

Community

WunderPhotos

Upload Photos

1,955,396 photos uploaded!

WunderBlog® & News

Nearby

Air Quality

  Air Quality AQ Index Pollutant
Not available.

Snow Depth

Station Depth Elevation

Earthquake Activity

City Distance Mag. Time & Date
Minimum magnitude displayed is 2.5.

Coastal Water Temperatures

Place Temperature

Stations

Nearby Weather Stations

Station Location Temp. Windchill Dew Point Humidity Wind Precip. Elev Updated Type
                   

Watches & Warnings

There are currently no watches in effect.